sensor_id;sensor_type;location;lat;lon;timestamp;P1;durP1;ratioP1;P2;durP2;ratioP2
24084;SDS011;12268;52.110;5.548;2023-09-08T00:00:49;32.60;;;23.98;;
24084;SDS011;12268;52.110;5.548;2023-09-08T00:03:15;32.78;;;22.73;;
24084;SDS011;12268;52.110;5.548;2023-09-08T00:05:41;29.70;;;22.10;;
24084;SDS011;12268;52.110;5.548;2023-09-08T00:08:06;27.45;;;23.25;;
24084;SDS011;12268;52.110;5.548;2023-09-08T00:10:32;27.27;;;23.15;;
24084;SDS011;12268;52.110;5.548;2023-09-08T00:12:57;29.85;;;23.75;;
24084;SDS011;12268;52.110;5.548;2023-09-08T00:15:23;28.42;;;22.45;;
24084;SDS011;12268;52.110;5.548;2023-09-08T00:17:48;25.70;;;22.02;;
24084;SDS011;12268;52.110;5.548;2023-09-08T00:20:14;28.05;;;23.05;;
24084;SDS011;12268;52.110;5.548;2023-09-08T00:22:40;28.45;;;23.35;;
24084;SDS011;12268;52.110;5.548;2023-09-08T00:25:05;27.05;;;22.63;;
24084;SDS011;12268;52.110;5.548;2023-09-08T00:27:31;30.10;;;22.85;;
24084;SDS011;12268;52.110;5.548;2023-09-08T00:29:57;27.83;;;22.38;;
24084;SDS011;12268;52.110;5.548;2023-09-08T00:32:23;27.92;;;21.67;;
24084;SDS011;12268;52.110;5.548;2023-09-08T00:34:48;29.88;;;22.02;;
24084;SDS011;12268;52.110;5.548;2023-09-08T00:37:14;24.90;;;21.15;;
24084;SDS011;12268;52.110;5.548;2023-09-08T00:39:40;26.95;;;21.65;;
24084;SDS011;12268;52.110;5.548;2023-09-08T00:42:05;26.77;;;22.83;;
24084;SDS011;12268;52.110;5.548;2023-09-08T00:44:32;24.80;;;22.10;;
24084;SDS011;12268;52.110;5.548;2023-09-08T00:46:57;27.33;;;21.77;;
24084;SDS011;12268;52.110;5.548;2023-09-08T00:49:23;28.98;;;22.77;;
24084;SDS011;12268;52.110;5.548;2023-09-08T00:51:49;26.90;;;22.15;;
24084;SDS011;12268;52.110;5.548;2023-09-08T00:54:15;25.33;;;22.20;;
24084;SDS011;12268;52.110;5.548;2023-09-08T00:56:41;30.08;;;22.05;;
24084;SDS011;12268;52.110;5.548;2023-09-08T00:59:07;30.38;;;23.67;;
24084;SDS011;12268;52.110;5.548;2023-09-08T01:01:33;28.92;;;22.55;;
24084;SDS011;12268;52.110;5.548;2023-09-08T01:04:00;27.17;;;22.33;;
24084;SDS011;12268;52.110;5.548;2023-09-08T01:06:25;27.33;;;22.27;;
24084;SDS011;12268;52.110;5.548;2023-09-08T01:08:52;28.63;;;22.20;;
24084;SDS011;12268;52.110;5.548;2023-09-08T01:11:19;23.40;;;20.95;;
24084;SDS011;12268;52.110;5.548;2023-09-08T01:13:45;27.75;;;21.77;;
24084;SDS011;12268;52.110;5.548;2023-09-08T01:16:10;26.00;;;22.45;;
24084;SDS011;12268;52.110;5.548;2023-09-08T01:18:36;25.58;;;21.60;;
24084;SDS011;12268;52.110;5.548;2023-09-08T01:21:13;27.33;;;23.52;;
24084;SDS011;12268;52.110;5.548;2023-09-08T01:23:50;26.83;;;23.92;;
24084;SDS011;12268;52.110;5.548;2023-09-08T01:26:31;28.00;;;23.25;;
24084;SDS011;12268;52.110;5.548;2023-09-08T01:29:02;27.80;;;23.88;;
24084;SDS011;12268;52.110;5.548;2023-09-08T01:31:29;30.83;;;23.50;;
24084;SDS011;12268;52.110;5.548;2023-09-08T01:33:55;30.58;;;25.20;;
24084;SDS011;12268;52.110;5.548;2023-09-08T01:36:21;30.80;;;24.85;;
24084;SDS011;12268;52.110;5.548;2023-09-08T01:38:46;31.05;;;24.98;;
24084;SDS011;12268;52.110;5.548;2023-09-08T01:41:12;28.00;;;24.42;;
24084;SDS011;12268;52.110;5.548;2023-09-08T01:43:37;30.23;;;24.98;;
24084;SDS011;12268;52.110;5.548;2023-09-08T01:46:03;30.88;;;25.35;;
24084;SDS011;12268;52.110;5.548;2023-09-08T01:48:28;30.35;;;24.70;;
24084;SDS011;12268;52.110;5.548;2023-09-08T01:50:54;30.55;;;24.92;;
24084;SDS011;12268;52.110;5.548;2023-09-08T01:53:19;29.42;;;24.80;;
24084;SDS011;12268;52.110;5.548;2023-09-08T01:55:45;30.02;;;24.83;;
24084;SDS011;12268;52.110;5.548;2023-09-08T01:58:10;34.03;;;25.65;;
24084;SDS011;12268;52.110;5.548;2023-09-08T02:00:36;30.63;;;24.83;;
24084;SDS011;12268;52.110;5.548;2023-09-08T02:03:01;29.00;;;25.35;;
24084;SDS011;12268;52.110;5.548;2023-09-08T02:05:27;29.58;;;25.48;;
24084;SDS011;12268;52.110;5.548;2023-09-08T02:07:53;32.00;;;26.42;;
24084;SDS011;12268;52.110;5.548;2023-09-08T02:10:20;32.47;;;27.27;;
24084;SDS011;12268;52.110;5.548;2023-09-08T02:12:46;35.35;;;27.67;;
24084;SDS011;12268;52.110;5.548;2023-09-08T02:15:11;39.33;;;29.48;;
24084;SDS011;12268;52.110;5.548;2023-09-08T02:17:37;34.22;;;27.85;;
24084;SDS011;12268;52.110;5.548;2023-09-08T02:20:02;36.08;;;27.45;;
24084;SDS011;12268;52.110;5.548;2023-09-08T02:22:28;33.85;;;27.63;;
24084;SDS011;12268;52.110;5.548;2023-09-08T02:24:54;35.97;;;28.25;;
24084;SDS011;12268;52.110;5.548;2023-09-08T02:27:21;34.00;;;27.45;;
24084;SDS011;12268;52.110;5.548;2023-09-08T02:29:47;39.13;;;28.90;;
24084;SDS011;12268;52.110;5.548;2023-09-08T02:32:12;38.53;;;27.23;;
24084;SDS011;12268;52.110;5.548;2023-09-08T02:34:39;38.63;;;28.27;;
24084;SDS011;12268;52.110;5.548;2023-09-08T02:37:06;32.95;;;26.42;;
24084;SDS011;12268;52.110;5.548;2023-09-08T02:39:32;32.42;;;26.02;;
24084;SDS011;12268;52.110;5.548;2023-09-08T02:41:57;35.88;;;28.05;;
24084;SDS011;12268;52.110;5.548;2023-09-08T02:44:23;35.20;;;27.55;;
24084;SDS011;12268;52.110;5.548;2023-09-08T02:46:50;34.47;;;28.65;;
24084;SDS011;12268;52.110;5.548;2023-09-08T02:49:15;33.72;;;27.80;;
24084;SDS011;12268;52.110;5.548;2023-09-08T02:51:41;39.00;;;29.27;;
24084;SDS011;12268;52.110;5.548;2023-09-08T02:54:06;39.55;;;30.85;;
24084;SDS011;12268;52.110;5.548;2023-09-08T02:56:32;44.95;;;30.58;;
24084;SDS011;12268;52.110;5.548;2023-09-08T02:58:57;42.83;;;33.42;;
24084;SDS011;12268;52.110;5.548;2023-09-08T03:01:23;45.40;;;32.38;;
24084;SDS011;12268;52.110;5.548;2023-09-08T03:03:49;42.40;;;31.90;;
24084;SDS011;12268;52.110;5.548;2023-09-08T03:06:15;45.80;;;32.78;;
24084;SDS011;12268;52.110;5.548;2023-09-08T03:08:45;44.17;;;33.33;;
24084;SDS011;12268;52.110;5.548;2023-09-08T03:11:10;44.72;;;33.53;;
24084;SDS011;12268;52.110;5.548;2023-09-08T03:13:37;45.25;;;33.35;;
24084;SDS011;12268;52.110;5.548;2023-09-08T03:16:03;44.03;;;31.45;;
24084;SDS011;12268;52.110;5.548;2023-09-08T03:18:30;40.22;;;31.15;;
24084;SDS011;12268;52.110;5.548;2023-09-08T03:21:01;39.90;;;31.73;;
24084;SDS011;12268;52.110;5.548;2023-09-08T03:23:33;43.90;;;33.15;;
24084;SDS011;12268;52.110;5.548;2023-09-08T03:26:02;44.70;;;34.10;;
24084;SDS011;12268;52.110;5.548;2023-09-08T03:28:28;56.58;;;39.97;;
24084;SDS011;12268;52.110;5.548;2023-09-08T03:30:54;46.45;;;34.22;;
24084;SDS011;12268;52.110;5.548;2023-09-08T03:33:19;45.20;;;31.38;;
24084;SDS011;12268;52.110;5.548;2023-09-08T03:35:45;40.75;;;31.30;;
24084;SDS011;12268;52.110;5.548;2023-09-08T03:38:10;46.47;;;35.53;;
24084;SDS011;12268;52.110;5.548;2023-09-08T03:40:36;52.20;;;37.00;;
24084;SDS011;12268;52.110;5.548;2023-09-08T03:43:02;49.35;;;35.97;;
24084;SDS011;12268;52.110;5.548;2023-09-08T03:45:28;50.15;;;36.20;;
24084;SDS011;12268;52.110;5.548;2023-09-08T03:47:54;47.13;;;34.90;;
24084;SDS011;12268;52.110;5.548;2023-09-08T03:50:19;43.17;;;31.77;;
24084;SDS011;12268;52.110;5.548;2023-09-08T03:52:45;46.70;;;34.65;;
24084;SDS011;12268;52.110;5.548;2023-09-08T03:55:11;51.30;;;37.10;;
24084;SDS011;12268;52.110;5.548;2023-09-08T03:57:36;49.13;;;34.90;;
24084;SDS011;12268;52.110;5.548;2023-09-08T04:00:02;43.92;;;33.38;;
24084;SDS011;12268;52.110;5.548;2023-09-08T04:02:30;43.53;;;33.15;;
24084;SDS011;12268;52.110;5.548;2023-09-08T04:04:55;41.47;;;31.95;;
24084;SDS011;12268;52.110;5.548;2023-09-08T04:07:21;45.65;;;32.22;;
24084;SDS011;12268;52.110;5.548;2023-09-08T04:09:46;45.13;;;30.85;;
24084;SDS011;12268;52.110;5.548;2023-09-08T04:12:12;47.00;;;33.53;;
24084;SDS011;12268;52.110;5.548;2023-09-08T04:14:37;42.75;;;32.17;;
24084;SDS011;12268;52.110;5.548;2023-09-08T04:17:03;43.70;;;32.50;;
24084;SDS011;12268;52.110;5.548;2023-09-08T04:19:28;45.78;;;33.33;;
24084;SDS011;12268;52.110;5.548;2023-09-08T04:21:54;45.55;;;31.10;;
24084;SDS011;12268;52.110;5.548;2023-09-08T04:24:19;47.78;;;32.00;;
24084;SDS011;12268;52.110;5.548;2023-09-08T04:26:45;41.85;;;30.73;;
24084;SDS011;12268;52.110;5.548;2023-09-08T04:29:11;42.65;;;30.85;;
24084;SDS011;12268;52.110;5.548;2023-09-08T04:31:36;39.92;;;29.38;;
24084;SDS011;12268;52.110;5.548;2023-09-08T04:34:02;39.08;;;29.63;;
24084;SDS011;12268;52.110;5.548;2023-09-08T04:36:27;45.85;;;28.05;;
24084;SDS011;12268;52.110;5.548;2023-09-08T04:38:54;44.42;;;28.08;;
24084;SDS011;12268;52.110;5.548;2023-09-08T04:41:20;43.05;;;27.73;;
24084;SDS011;12268;52.110;5.548;2023-09-08T04:43:46;40.13;;;26.98;;
24084;SDS011;12268;52.110;5.548;2023-09-08T04:46:11;37.00;;;26.73;;
24084;SDS011;12268;52.110;5.548;2023-09-08T04:48:37;46.83;;;27.40;;
24084;SDS011;12268;52.110;5.548;2023-09-08T04:51:02;45.28;;;27.15;;
24084;SDS011;12268;52.110;5.548;2023-09-08T04:53:28;44.60;;;27.63;;
24084;SDS011;12268;52.110;5.548;2023-09-08T04:55:53;39.80;;;27.40;;
24084;SDS011;12268;52.110;5.548;2023-09-08T04:58:19;38.47;;;26.20;;
24084;SDS011;12268;52.110;5.548;2023-09-08T05:00:45;37.88;;;26.88;;
24084;SDS011;12268;52.110;5.548;2023-09-08T05:03:10;38.80;;;27.08;;
24084;SDS011;12268;52.110;5.548;2023-09-08T05:05:36;38.47;;;27.38;;
24084;SDS011;12268;52.110;5.548;2023-09-08T05:08:01;38.47;;;27.38;;
24084;SDS011;12268;52.110;5.548;2023-09-08T05:10:27;36.67;;;27.80;;
24084;SDS011;12268;52.110;5.548;2023-09-08T05:12:53;42.53;;;27.42;;
24084;SDS011;12268;52.110;5.548;2023-09-08T05:15:18;39.20;;;24.92;;
24084;SDS011;12268;52.110;5.548;2023-09-08T05:17:46;35.70;;;26.02;;
24084;SDS011;12268;52.110;5.548;2023-09-08T05:20:12;37.88;;;26.58;;
24084;SDS011;12268;52.110;5.548;2023-09-08T05:22:37;40.85;;;28.23;;
24084;SDS011;12268;52.110;5.548;2023-09-08T05:25:03;42.92;;;28.08;;
24084;SDS011;12268;52.110;5.548;2023-09-08T05:27:29;39.33;;;26.45;;
24084;SDS011;12268;52.110;5.548;2023-09-08T05:29:56;37.05;;;26.80;;
24084;SDS011;12268;52.110;5.548;2023-09-08T05:32:22;36.53;;;27.45;;
24084;SDS011;12268;52.110;5.548;2023-09-08T05:34:47;37.28;;;27.67;;
24084;SDS011;12268;52.110;5.548;2023-09-08T05:37:13;35.83;;;27.30;;
24084;SDS011;12268;52.110;5.548;2023-09-08T05:39:38;35.08;;;27.35;;
24084;SDS011;12268;52.110;5.548;2023-09-08T05:42:04;39.17;;;29.33;;
24084;SDS011;12268;52.110;5.548;2023-09-08T05:44:29;45.03;;;29.83;;
24084;SDS011;12268;52.110;5.548;2023-09-08T05:46:55;42.80;;;29.08;;
24084;SDS011;12268;52.110;5.548;2023-09-08T05:49:20;40.88;;;29.63;;
24084;SDS011;12268;52.110;5.548;2023-09-08T05:51:46;44.47;;;30.40;;
24084;SDS011;12268;52.110;5.548;2023-09-08T05:54:12;46.55;;;30.15;;
24084;SDS011;12268;52.110;5.548;2023-09-08T05:56:37;45.28;;;30.35;;
24084;SDS011;12268;52.110;5.548;2023-09-08T05:59:03;39.92;;;31.30;;
24084;SDS011;12268;52.110;5.548;2023-09-08T06:01:29;36.67;;;29.10;;
24084;SDS011;12268;52.110;5.548;2023-09-08T06:03:55;43.03;;;30.70;;
24084;SDS011;12268;52.110;5.548;2023-09-08T06:06:21;43.20;;;28.60;;
24084;SDS011;12268;52.110;5.548;2023-09-08T06:08:47;39.92;;;29.83;;
24084;SDS011;12268;52.110;5.548;2023-09-08T06:11:12;41.30;;;29.85;;
24084;SDS011;12268;52.110;5.548;2023-09-08T06:13:38;40.53;;;29.63;;
24084;SDS011;12268;52.110;5.548;2023-09-08T06:16:04;37.58;;;29.15;;
24084;SDS011;12268;52.110;5.548;2023-09-08T06:18:29;42.35;;;29.50;;
24084;SDS011;12268;52.110;5.548;2023-09-08T06:20:55;39.40;;;28.55;;
24084;SDS011;12268;52.110;5.548;2023-09-08T06:23:21;40.22;;;28.70;;
24084;SDS011;12268;52.110;5.548;2023-09-08T06:25:47;40.28;;;29.73;;
24084;SDS011;12268;52.110;5.548;2023-09-08T06:28:13;39.38;;;28.42;;
24084;SDS011;12268;52.110;5.548;2023-09-08T06:30:39;42.22;;;28.38;;
24084;SDS011;12268;52.110;5.548;2023-09-08T06:33:06;43.88;;;28.23;;
24084;SDS011;12268;52.110;5.548;2023-09-08T06:35:32;41.75;;;27.98;;
24084;SDS011;12268;52.110;5.548;2023-09-08T06:37:58;39.80;;;28.17;;
24084;SDS011;12268;52.110;5.548;2023-09-08T06:40:24;41.17;;;28.90;;
24084;SDS011;12268;52.110;5.548;2023-09-08T06:42:50;35.65;;;26.98;;
24084;SDS011;12268;52.110;5.548;2023-09-08T06:45:16;36.92;;;26.60;;
24084;SDS011;12268;52.110;5.548;2023-09-08T06:47:42;38.97;;;27.95;;
24084;SDS011;12268;52.110;5.548;2023-09-08T06:50:08;35.78;;;28.50;;
24084;SDS011;12268;52.110;5.548;2023-09-08T06:52:35;35.42;;;26.42;;
24084;SDS011;12268;52.110;5.548;2023-09-08T06:55:00;31.67;;;24.67;;
24084;SDS011;12268;52.110;5.548;2023-09-08T06:57:26;39.50;;;22.48;;
24084;SDS011;12268;52.110;5.548;2023-09-08T06:59:51;30.80;;;22.65;;
24084;SDS011;12268;52.110;5.548;2023-09-08T07:02:17;33.92;;;22.88;;
24084;SDS011;12268;52.110;5.548;2023-09-08T07:04:43;33.15;;;23.27;;
24084;SDS011;12268;52.110;5.548;2023-09-08T07:07:08;29.02;;;22.85;;
24084;SDS011;12268;52.110;5.548;2023-09-08T07:09:35;31.45;;;22.42;;
24084;SDS011;12268;52.110;5.548;2023-09-08T07:12:02;32.28;;;23.67;;
24084;SDS011;12268;52.110;5.548;2023-09-08T07:14:28;30.58;;;23.05;;
24084;SDS011;12268;52.110;5.548;2023-09-08T07:16:54;32.22;;;24.85;;
24084;SDS011;12268;52.110;5.548;2023-09-08T07:19:19;29.30;;;23.45;;
24084;SDS011;12268;52.110;5.548;2023-09-08T07:21:45;27.80;;;24.15;;
24084;SDS011;12268;52.110;5.548;2023-09-08T07:24:10;25.80;;;22.08;;
24084;SDS011;12268;52.110;5.548;2023-09-08T07:26:37;25.88;;;21.50;;
24084;SDS011;12268;52.110;5.548;2023-09-08T07:29:02;25.30;;;20.27;;
24084;SDS011;12268;52.110;5.548;2023-09-08T07:31:28;24.75;;;19.35;;
24084;SDS011;12268;52.110;5.548;2023-09-08T07:33:53;26.67;;;20.92;;
24084;SDS011;12268;52.110;5.548;2023-09-08T07:36:19;24.42;;;19.08;;
24084;SDS011;12268;52.110;5.548;2023-09-08T07:38:45;25.67;;;17.77;;
24084;SDS011;12268;52.110;5.548;2023-09-08T07:41:10;23.67;;;19.23;;
24084;SDS011;12268;52.110;5.548;2023-09-08T07:43:36;23.77;;;18.45;;
24084;SDS011;12268;52.110;5.548;2023-09-08T07:46:05;24.95;;;19.35;;
24084;SDS011;12268;52.110;5.548;2023-09-08T07:48:33;21.75;;;18.95;;
24084;SDS011;12268;52.110;5.548;2023-09-08T07:50:59;22.75;;;18.60;;
24084;SDS011;12268;52.110;5.548;2023-09-08T07:53:25;21.17;;;17.60;;
24084;SDS011;12268;52.110;5.548;2023-09-08T07:55:54;22.58;;;18.83;;
24084;SDS011;12268;52.110;5.548;2023-09-08T07:58:19;21.35;;;18.17;;
24084;SDS011;12268;52.110;5.548;2023-09-08T08:00:45;28.73;;;19.08;;
24084;SDS011;12268;52.110;5.548;2023-09-08T08:03:10;21.52;;;18.90;;
24084;SDS011;12268;52.110;5.548;2023-09-08T08:05:36;26.00;;;18.63;;
24084;SDS011;12268;52.110;5.548;2023-09-08T08:08:01;20.30;;;17.30;;
24084;SDS011;12268;52.110;5.548;2023-09-08T08:10:27;21.45;;;17.33;;
24084;SDS011;12268;52.110;5.548;2023-09-08T08:12:53;25.02;;;18.05;;
24084;SDS011;12268;52.110;5.548;2023-09-08T08:15:19;22.38;;;18.10;;
24084;SDS011;12268;52.110;5.548;2023-09-08T08:17:46;21.25;;;18.58;;
24084;SDS011;12268;52.110;5.548;2023-09-08T08:20:12;26.55;;;19.88;;
24084;SDS011;12268;52.110;5.548;2023-09-08T08:22:42;22.80;;;18.40;;
24084;SDS011;12268;52.110;5.548;2023-09-08T08:25:08;24.17;;;18.50;;
24084;SDS011;12268;52.110;5.548;2023-09-08T08:27:34;25.00;;;18.65;;
24084;SDS011;12268;52.110;5.548;2023-09-08T08:29:59;21.75;;;18.50;;
24084;SDS011;12268;52.110;5.548;2023-09-08T08:32:28;23.65;;;19.27;;
24084;SDS011;12268;52.110;5.548;2023-09-08T08:34:54;23.63;;;19.23;;
24084;SDS011;12268;52.110;5.548;2023-09-08T08:37:20;21.85;;;18.15;;
24084;SDS011;12268;52.110;5.548;2023-09-08T08:39:46;24.17;;;18.15;;
24084;SDS011;12268;52.110;5.548;2023-09-08T08:42:11;23.10;;;18.52;;
24084;SDS011;12268;52.110;5.548;2023-09-08T08:44:38;24.05;;;18.55;;
24084;SDS011;12268;52.110;5.548;2023-09-08T08:47:03;23.45;;;17.98;;
24084;SDS011;12268;52.110;5.548;2023-09-08T08:49:32;22.48;;;18.42;;
24084;SDS011;12268;52.110;5.548;2023-09-08T08:51:58;23.83;;;18.33;;
24084;SDS011;12268;52.110;5.548;2023-09-08T08:54:25;24.20;;;18.85;;
24084;SDS011;12268;52.110;5.548;2023-09-08T08:56:50;20.10;;;17.58;;
24084;SDS011;12268;52.110;5.548;2023-09-08T08:59:16;26.40;;;17.83;;
24084;SDS011;12268;52.110;5.548;2023-09-08T09:01:43;24.60;;;18.38;;
24084;SDS011;12268;52.110;5.548;2023-09-08T09:04:10;23.52;;;17.73;;
24084;SDS011;12268;52.110;5.548;2023-09-08T09:06:36;22.08;;;17.63;;
24084;SDS011;12268;52.110;5.548;2023-09-08T09:09:02;26.70;;;19.25;;
24084;SDS011;12268;52.110;5.548;2023-09-08T09:11:30;28.25;;;20.00;;
24084;SDS011;12268;52.110;5.548;2023-09-08T09:13:56;25.73;;;18.73;;
24084;SDS011;12268;52.110;5.548;2023-09-08T09:16:23;23.52;;;19.33;;
24084;SDS011;12268;52.110;5.548;2023-09-08T09:18:56;21.15;;;17.77;;
24084;SDS011;12268;52.110;5.548;2023-09-08T09:21:22;24.30;;;18.40;;
24084;SDS011;12268;52.110;5.548;2023-09-08T09:23:49;22.40;;;17.60;;
24084;SDS011;12268;52.110;5.548;2023-09-08T09:26:24;19.83;;;16.65;;
24084;SDS011;12268;52.110;5.548;2023-09-08T09:28:51;21.55;;;17.35;;
24084;SDS011;12268;52.110;5.548;2023-09-08T09:31:18;22.20;;;17.70;;
24084;SDS011;12268;52.110;5.548;2023-09-08T09:33:47;20.45;;;16.45;;
24084;SDS011;12268;52.110;5.548;2023-09-08T09:36:22;20.02;;;16.50;;
24084;SDS011;12268;52.110;5.548;2023-09-08T09:38:48;18.02;;;16.20;;
24084;SDS011;12268;52.110;5.548;2023-09-08T09:41:13;22.23;;;17.25;;
24084;SDS011;12268;52.110;5.548;2023-09-08T09:43:39;21.40;;;17.38;;
24084;SDS011;12268;52.110;5.548;2023-09-08T09:46:07;20.92;;;16.77;;
24084;SDS011;12268;52.110;5.548;2023-09-08T09:48:33;20.50;;;16.17;;
24084;SDS011;12268;52.110;5.548;2023-09-08T09:51:00;18.90;;;17.00;;
24084;SDS011;12268;52.110;5.548;2023-09-08T09:53:51;22.40;;;16.25;;
24084;SDS011;12268;52.110;5.548;2023-09-08T09:56:19;20.25;;;15.45;;
24084;SDS011;12268;52.110;5.548;2023-09-08T09:58:47;19.75;;;15.30;;
24084;SDS011;12268;52.110;5.548;2023-09-08T10:01:13;16.38;;;14.68;;
24084;SDS011;12268;52.110;5.548;2023-09-08T10:03:40;18.60;;;15.98;;
24084;SDS011;12268;52.110;5.548;2023-09-08T10:06:05;20.38;;;17.15;;
24084;SDS011;12268;52.110;5.548;2023-09-08T10:08:32;18.05;;;16.05;;
24084;SDS011;12268;52.110;5.548;2023-09-08T10:11:01;15.15;;;13.57;;
24084;SDS011;12268;52.110;5.548;2023-09-08T10:13:31;19.40;;;13.07;;
24084;SDS011;12268;52.110;5.548;2023-09-08T10:16:03;17.20;;;14.15;;
24084;SDS011;12268;52.110;5.548;2023-09-08T10:18:30;15.52;;;13.57;;
24084;SDS011;12268;52.110;5.548;2023-09-08T10:20:59;15.05;;;13.45;;
24084;SDS011;12268;52.110;5.548;2023-09-08T10:23:35;15.55;;;13.77;;
24084;SDS011;12268;52.110;5.548;2023-09-08T10:26:05;13.98;;;12.57;;
24084;SDS011;12268;52.110;5.548;2023-09-08T10:28:34;14.27;;;12.88;;
24084;SDS011;12268;52.110;5.548;2023-09-08T10:31:01;18.50;;;12.88;;
24084;SDS011;12268;52.110;5.548;2023-09-08T10:33:28;20.95;;;14.45;;
24084;SDS011;12268;52.110;5.548;2023-09-08T10:35:54;15.85;;;14.20;;
24084;SDS011;12268;52.110;5.548;2023-09-08T10:40:51;17.85;;;15.98;;
24084;SDS011;12268;52.110;5.548;2023-09-08T10:43:17;17.83;;;16.10;;
24084;SDS011;12268;52.110;5.548;2023-09-08T10:45:45;17.67;;;13.73;;
24084;SDS011;12268;52.110;5.548;2023-09-08T10:48:11;17.40;;;15.75;;
24084;SDS011;12268;52.110;5.548;2023-09-08T10:50:41;17.23;;;15.48;;
24084;SDS011;12268;52.110;5.548;2023-09-08T10:53:08;19.10;;;14.98;;
24084;SDS011;12268;52.110;5.548;2023-09-08T10:55:44;19.17;;;12.75;;
24084;SDS011;12268;52.110;5.548;2023-09-08T10:58:30;22.95;;;15.20;;
24084;SDS011;12268;52.110;5.548;2023-09-08T11:01:02;16.27;;;13.50;;
24084;SDS011;12268;52.110;5.548;2023-09-08T11:06:06;17.33;;;15.35;;
24084;SDS011;12268;52.110;5.548;2023-09-08T11:08:33;16.77;;;13.60;;
24084;SDS011;12268;52.110;5.548;2023-09-08T11:11:00;15.20;;;13.63;;
24084;SDS011;12268;52.110;5.548;2023-09-08T11:13:26;13.25;;;11.95;;
24084;SDS011;12268;52.110;5.548;2023-09-08T11:15:53;15.02;;;13.30;;
24084;SDS011;12268;52.110;5.548;2023-09-08T11:18:28;18.67;;;13.60;;
24084;SDS011;12268;52.110;5.548;2023-09-08T11:20:54;16.45;;;13.85;;
24084;SDS011;12268;52.110;5.548;2023-09-08T11:23:20;14.57;;;11.45;;
24084;SDS011;12268;52.110;5.548;2023-09-08T11:36:12;11.90;;;10.50;;
24084;SDS011;12268;52.110;5.548;2023-09-08T11:38:39;10.90;;;9.90;;
24084;SDS011;12268;52.110;5.548;2023-09-08T11:41:06;15.50;;;11.63;;
24084;SDS011;12268;52.110;5.548;2023-09-08T11:43:31;12.75;;;11.45;;
24084;SDS011;12268;52.110;5.548;2023-09-08T11:46:00;13.82;;;11.38;;
24084;SDS011;12268;52.110;5.548;2023-09-08T11:48:25;11.32;;;10.23;;
24084;SDS011;12268;52.110;5.548;2023-09-08T11:50:54;13.65;;;10.32;;
24084;SDS011;12268;52.110;5.548;2023-09-08T11:53:20;14.05;;;10.07;;
24084;SDS011;12268;52.110;5.548;2023-09-08T11:55:47;12.70;;;11.43;;
24084;SDS011;12268;52.110;5.548;2023-09-08T11:58:14;12.68;;;11.40;;
24084;SDS011;12268;52.110;5.548;2023-09-08T12:00:40;11.35;;;10.27;;
24084;SDS011;12268;52.110;5.548;2023-09-08T12:03:10;13.23;;;11.80;;
24084;SDS011;12268;52.110;5.548;2023-09-08T12:05:37;11.40;;;10.43;;
24084;SDS011;12268;52.110;5.548;2023-09-08T12:08:04;15.20;;;11.45;;
24084;SDS011;12268;52.110;5.548;2023-09-08T12:10:30;14.48;;;10.60;;
24084;SDS011;12268;52.110;5.548;2023-09-08T12:13:03;11.73;;;10.50;;
24084;SDS011;12268;52.110;5.548;2023-09-08T12:15:36;11.93;;;10.73;;
24084;SDS011;12268;52.110;5.548;2023-09-08T12:18:10;13.98;;;10.77;;
24084;SDS011;12268;52.110;5.548;2023-09-08T12:20:37;14.73;;;11.13;;
24084;SDS011;12268;52.110;5.548;2023-09-08T12:23:04;13.82;;;10.98;;
24084;SDS011;12268;52.110;5.548;2023-09-08T12:25:33;12.90;;;10.63;;
24084;SDS011;12268;52.110;5.548;2023-09-08T12:28:10;11.70;;;9.88;;
24084;SDS011;12268;52.110;5.548;2023-09-08T12:30:35;15.95;;;9.80;;
24084;SDS011;12268;52.110;5.548;2023-09-08T12:33:01;13.93;;;11.20;;
24084;SDS011;12268;52.110;5.548;2023-09-08T12:35:27;13.80;;;11.38;;
24084;SDS011;12268;52.110;5.548;2023-09-08T12:38:01;13.38;;;10.57;;
24084;SDS011;12268;52.110;5.548;2023-09-08T12:40:32;12.57;;;10.77;;
24084;SDS011;12268;52.110;5.548;2023-09-08T12:42:59;15.77;;;12.33;;
24084;SDS011;12268;52.110;5.548;2023-09-08T12:45:25;11.95;;;10.80;;
24084;SDS011;12268;52.110;5.548;2023-09-08T12:47:52;16.23;;;11.00;;
24084;SDS011;12268;52.110;5.548;2023-09-08T12:50:19;14.07;;;11.23;;
24084;SDS011;12268;52.110;5.548;2023-09-08T12:52:45;12.88;;;10.25;;
24084;SDS011;12268;52.110;5.548;2023-09-08T12:55:11;13.50;;;11.60;;
24084;SDS011;12268;52.110;5.548;2023-09-08T12:57:36;15.00;;;11.00;;
24084;SDS011;12268;52.110;5.548;2023-09-08T13:00:02;14.07;;;11.20;;
24084;SDS011;12268;52.110;5.548;2023-09-08T13:02:29;13.27;;;10.50;;
24084;SDS011;12268;52.110;5.548;2023-09-08T13:04:54;18.40;;;10.15;;
24084;SDS011;12268;52.110;5.548;2023-09-08T13:07:20;10.65;;;9.45;;
24084;SDS011;12268;52.110;5.548;2023-09-08T13:09:45;11.63;;;10.43;;
24084;SDS011;12268;52.110;5.548;2023-09-08T13:12:11;11.38;;;9.50;;
24084;SDS011;12268;52.110;5.548;2023-09-08T13:14:38;11.45;;;10.35;;
24084;SDS011;12268;52.110;5.548;2023-09-08T13:17:04;13.63;;;8.82;;
24084;SDS011;12268;52.110;5.548;2023-09-08T13:19:31;10.07;;;8.82;;
24084;SDS011;12268;52.110;5.548;2023-09-08T13:21:57;9.68;;;8.68;;
24084;SDS011;12268;52.110;5.548;2023-09-08T13:24:23;10.57;;;9.27;;
24084;SDS011;12268;52.110;5.548;2023-09-08T13:26:48;12.73;;;9.13;;
24084;SDS011;12268;52.110;5.548;2023-09-08T13:29:15;12.25;;;9.35;;
24084;SDS011;12268;52.110;5.548;2023-09-08T13:31:41;10.88;;;8.88;;
24084;SDS011;12268;52.110;5.548;2023-09-08T13:34:07;10.25;;;8.18;;
24084;SDS011;12268;52.110;5.548;2023-09-08T13:36:32;9.35;;;8.52;;
24084;SDS011;12268;52.110;5.548;2023-09-08T13:38:58;10.05;;;8.70;;
24084;SDS011;12268;52.110;5.548;2023-09-08T13:41:23;11.82;;;8.75;;
24084;SDS011;12268;52.110;5.548;2023-09-08T13:43:49;12.27;;;9.95;;
24084;SDS011;12268;52.110;5.548;2023-09-08T13:46:15;12.80;;;9.30;;
24084;SDS011;12268;52.110;5.548;2023-09-08T13:48:40;12.15;;;9.43;;
24084;SDS011;12268;52.110;5.548;2023-09-08T13:51:06;12.52;;;9.80;;
24084;SDS011;12268;52.110;5.548;2023-09-08T13:53:31;11.68;;;10.38;;
24084;SDS011;12268;52.110;5.548;2023-09-08T13:55:57;11.55;;;9.63;;
24084;SDS011;12268;52.110;5.548;2023-09-08T13:58:22;11.40;;;9.85;;
24084;SDS011;12268;52.110;5.548;2023-09-08T14:00:48;12.02;;;9.82;;
24084;SDS011;12268;52.110;5.548;2023-09-08T14:03:14;16.00;;;9.60;;
24084;SDS011;12268;52.110;5.548;2023-09-08T14:05:40;12.95;;;9.50;;
24084;SDS011;12268;52.110;5.548;2023-09-08T14:08:05;12.73;;;10.02;;
24084;SDS011;12268;52.110;5.548;2023-09-08T14:10:31;12.07;;;9.38;;
24084;SDS011;12268;52.110;5.548;2023-09-08T14:12:56;18.50;;;9.85;;
24084;SDS011;12268;52.110;5.548;2023-09-08T14:15:22;15.85;;;9.98;;
24084;SDS011;12268;52.110;5.548;2023-09-08T14:17:47;11.82;;;8.55;;
24084;SDS011;12268;52.110;5.548;2023-09-08T14:20:13;11.65;;;9.95;;
24084;SDS011;12268;52.110;5.548;2023-09-08T14:22:38;13.77;;;10.10;;
24084;SDS011;12268;52.110;5.548;2023-09-08T14:25:04;14.65;;;9.98;;
24084;SDS011;12268;52.110;5.548;2023-09-08T14:27:30;18.00;;;11.00;;
24084;SDS011;12268;52.110;5.548;2023-09-08T14:29:56;12.07;;;10.23;;
24084;SDS011;12268;52.110;5.548;2023-09-08T14:32:21;26.60;;;11.85;;
24084;SDS011;12268;52.110;5.548;2023-09-08T14:34:48;16.90;;;9.77;;